Louisville, KY (40223)

5:42 PM EDT on May 25, 2015 (GMT -0400)
Lake Forest | | Change Station
CLOSE
Current Station
Personal Weather Station
Location: Louisville, KY
Elevation: 646 ft
Nearby Weather Stations

Elev 646 ft 38.25 °N, 85.49 °W | Updated 1 second ago

Overcast
Overcast
72.0 °F
Feels Like 72.0 °F
N
0.0
Wind Variable Wind from NNW
Gusts 0.0 mph

Today
High -- | Low -- °F
--% Chance of Precip.
Yesterday
High -- | Low -- °F
Precip. -- in
6:23 AM 8:54 PM
First Quarter, 52% visible
Pressure 30.13 in
Visibility 10.0 miles
Clouds Scattered Clouds 2200 ft
Mostly Cloudy 3200 ft
Overcast 4300 ft
Dew Point 68 °F
Humidity 88%
Rainfall 0.46 in
Snow Depth Not available.
UV 1.0 out of 12
Pollen 7.20 out of 12
Air Quality Not available.
Flu Activity Sporadic
SPECI KLOU 252114Z 19008KT 10SM -RA SCT022 BKN032 OVC043 23/18 A3013

More Conditions Fewer Conditions

Pressure 30.13 in
Visibility 10.0 miles
Clouds Scattered Clouds 2200 ft
Mostly Cloudy 3200 ft
Overcast 4300 ft
Dew Point 68 °F
Humidity 88%
Rainfall 0.46 in
Snow Depth Not available.
UV 1.0 out of 12
Pollen 7.20 out of 12
Air Quality Not available.
Flu Activity Sporadic
SPECI KLOU 252114Z 19008KT 10SM -RA SCT022 BKN032 OVC043 23/18 A3013

More Conditions Fewer Conditions

10-Day Weather Forecast

Almanac

Astronomy

May. 25, 2015 Rise Set
Actual Time
Civil Twilight
Nautical Twilight
Astronomical Twilight
Moon
Length of Visible Light
Length of Day
Tomorrow will be .
, % of the Moon is Illuminated

Today's Extremes

State Highs State Lows

Community

WunderPhotos

Upload Photos

1,824,140 photos uploaded!

WunderBlogs® & News

Nearby

Air Quality

  Air Quality AQ Index Pollutant
Not available.

Snow Depth

Station Depth Elevation

Earthquake Activity

City Distance Mag. Time & Date
Minimum magnitude displayed is 2.5.

Coastal Water Temperatures

Place Temperature

Stations

Nearby Weather Stations

Station Location Temp. Windchill Dew Point Humidity Wind Precip. Elev Updated Type